sensor_id;sensor_type;location;lat;lon;timestamp;pressure;altitude;pressure_sealevel;temperature
48894;BMP280;34710;35.798;139.446;2022-10-16T00:01:50;101156.83;;;24.93
48894;BMP280;34710;35.798;139.446;2022-10-16T00:04:19;101155.26;;;25.32
48894;BMP280;34710;35.798;139.446;2022-10-16T00:06:48;101150.34;;;25.55
48894;BMP280;34710;35.798;139.446;2022-10-16T00:09:18;101148.04;;;25.65
48894;BMP280;34710;35.798;139.446;2022-10-16T00:11:48;101146.53;;;25.36
48894;BMP280;34710;35.798;139.446;2022-10-16T00:14:17;101149.60;;;25.84
48894;BMP280;34710;35.798;139.446;2022-10-16T00:16:46;101146.20;;;25.89
48894;BMP280;34710;35.798;139.446;2022-10-16T00:19:15;101147.64;;;25.72
48894;BMP280;34710;35.798;139.446;2022-10-16T00:21:45;101144.95;;;25.99
48894;BMP280;34710;35.798;139.446;2022-10-16T00:24:14;101135.56;;;25.72
48894;BMP280;34710;35.798;139.446;2022-10-16T00:26:43;101134.87;;;26.42
48894;BMP280;34710;35.798;139.446;2022-10-16T00:29:12;101135.19;;;25.98
48894;BMP280;34710;35.798;139.446;2022-10-16T00:31:42;101137.22;;;26.61
48894;BMP280;34710;35.798;139.446;2022-10-16T00:34:11;101134.61;;;26.62
48894;BMP280;34710;35.798;139.446;2022-10-16T00:36:40;101127.33;;;26.81
48894;BMP280;34710;35.798;139.446;2022-10-16T00:39:09;101122.42;;;26.89
48894;BMP280;34710;35.798;139.446;2022-10-16T00:41:38;101119.56;;;26.75
48894;BMP280;34710;35.798;139.446;2022-10-16T00:44:46;101117.71;;;26.58
48894;BMP280;34710;35.798;139.446;2022-10-16T00:47:21;101119.52;;;27.08
48894;BMP280;34710;35.798;139.446;2022-10-16T00:49:53;101118.04;;;26.77
48894;BMP280;34710;35.798;139.446;2022-10-16T00:52:25;101121.75;;;26.86
48894;BMP280;34710;35.798;139.446;2022-10-16T00:54:55;101123.95;;;26.56
48894;BMP280;34710;35.798;139.446;2022-10-16T00:57:26;101125.28;;;27.12
48894;BMP280;34710;35.798;139.446;2022-10-16T00:59:56;101120.76;;;26.99
48894;BMP280;34710;35.798;139.446;2022-10-16T01:02:26;101117.42;;;26.97
48894;BMP280;34710;35.798;139.446;2022-10-16T01:04:55;101117.86;;;27.09
48894;BMP280;34710;35.798;139.446;2022-10-16T01:07:34;101114.64;;;26.77
48894;BMP280;34710;35.798;139.446;2022-10-16T01:10:14;101111.44;;;27.12
48894;BMP280;34710;35.798;139.446;2022-10-16T01:12:51;101108.83;;;27.08
48894;BMP280;34710;35.798;139.446;2022-10-16T01:15:27;101104.24;;;26.91
48894;BMP280;34710;35.798;139.446;2022-10-16T01:18:03;101095.94;;;27.02
48894;BMP280;34710;35.798;139.446;2022-10-16T01:20:37;101094.01;;;27.12
48894;BMP280;34710;35.798;139.446;2022-10-16T01:23:20;101093.70;;;26.76
48894;BMP280;34710;35.798;139.446;2022-10-16T01:26:07;101091.27;;;27.00
48894;BMP280;34710;35.798;139.446;2022-10-16T01:28:44;101091.64;;;26.85
48894;BMP280;34710;35.798;139.446;2022-10-16T01:31:19;101089.77;;;26.63
48894;BMP280;34710;35.798;139.446;2022-10-16T01:33:56;101089.79;;;27.04
48894;BMP280;34710;35.798;139.446;2022-10-16T01:36:35;101086.04;;;26.97
48894;BMP280;34710;35.798;139.446;2022-10-16T01:39:05;101087.01;;;26.61
48894;BMP280;34710;35.798;139.446;2022-10-16T01:41:41;101083.29;;;26.49
48894;BMP280;34710;35.798;139.446;2022-10-16T01:44:16;101082.77;;;26.81
48894;BMP280;34710;35.798;139.446;2022-10-16T01:46:49;101079.17;;;26.83
48894;BMP280;34710;35.798;139.446;2022-10-16T01:49:20;101078.00;;;26.86
48894;BMP280;34710;35.798;139.446;2022-10-16T01:51:53;101072.16;;;26.23
48894;BMP280;34710;35.798;139.446;2022-10-16T01:54:27;101069.30;;;26.60
48894;BMP280;34710;35.798;139.446;2022-10-16T01:56:59;101069.60;;;26.76
48894;BMP280;34710;35.798;139.446;2022-10-16T01:59:33;101066.41;;;26.93
48894;BMP280;34710;35.798;139.446;2022-10-16T02:02:09;101062.78;;;26.88
48894;BMP280;34710;35.798;139.446;2022-10-16T02:04:42;101062.58;;;26.92
48894;BMP280;34710;35.798;139.446;2022-10-16T02:07:13;101058.39;;;27.05
48894;BMP280;34710;35.798;139.446;2022-10-16T02:09:42;101052.96;;;26.84
48894;BMP280;34710;35.798;139.446;2022-10-16T02:12:15;101048.92;;;26.96
48894;BMP280;34710;35.798;139.446;2022-10-16T02:14:49;101046.56;;;26.74
48894;BMP280;34710;35.798;139.446;2022-10-16T02:17:20;101044.66;;;27.08
48894;BMP280;34710;35.798;139.446;2022-10-16T02:19:53;101040.77;;;27.37
48894;BMP280;34710;35.798;139.446;2022-10-16T02:22:27;101033.86;;;27.12
48894;BMP280;34710;35.798;139.446;2022-10-16T02:25:02;101036.44;;;26.46
48894;BMP280;34710;35.798;139.446;2022-10-16T02:27:34;101033.80;;;26.42
48894;BMP280;34710;35.798;139.446;2022-10-16T02:30:11;101032.58;;;26.69
48894;BMP280;34710;35.798;139.446;2022-10-16T02:32:44;101030.55;;;25.43
48894;BMP280;34710;35.798;139.446;2022-10-16T02:35:17;101030.23;;;25.86
48894;BMP280;34710;35.798;139.446;2022-10-16T02:37:48;101023.54;;;26.40
48894;BMP280;34710;35.798;139.446;2022-10-16T02:40:19;101021.64;;;26.41
48894;BMP280;34710;35.798;139.446;2022-10-16T02:42:51;101018.99;;;25.91
48894;BMP280;34710;35.798;139.446;2022-10-16T02:45:20;101016.66;;;24.82
48894;BMP280;34710;35.798;139.446;2022-10-16T02:47:51;101012.67;;;25.36
48894;BMP280;34710;35.798;139.446;2022-10-16T02:50:21;101005.93;;;26.52
48894;BMP280;34710;35.798;139.446;2022-10-16T02:52:50;101001.34;;;26.22
48894;BMP280;34710;35.798;139.446;2022-10-16T02:55:19;100993.31;;;26.65
48894;BMP280;34710;35.798;139.446;2022-10-16T02:57:48;100987.79;;;26.99
48894;BMP280;34710;35.798;139.446;2022-10-16T03:00:18;100980.99;;;27.36
48894;BMP280;34710;35.798;139.446;2022-10-16T03:02:47;100977.71;;;27.10
48894;BMP280;34710;35.798;139.446;2022-10-16T03:05:16;100971.07;;;27.17
48894;BMP280;34710;35.798;139.446;2022-10-16T03:07:45;100971.05;;;26.95
48894;BMP280;34710;35.798;139.446;2022-10-16T03:10:15;100965.64;;;28.01
48894;BMP280;34710;35.798;139.446;2022-10-16T03:12:44;100961.01;;;28.60
48894;BMP280;34710;35.798;139.446;2022-10-16T03:15:14;100957.33;;;28.98
48894;BMP280;34710;35.798;139.446;2022-10-16T03:17:43;100954.55;;;29.25
48894;BMP280;34710;35.798;139.446;2022-10-16T03:20:13;100945.44;;;28.37
48894;BMP280;34710;35.798;139.446;2022-10-16T03:22:43;100941.25;;;29.01
48894;BMP280;34710;35.798;139.446;2022-10-16T03:25:13;100936.32;;;29.57
48894;BMP280;34710;35.798;139.446;2022-10-16T03:27:43;100930.29;;;29.26
48894;BMP280;34710;35.798;139.446;2022-10-16T03:30:13;100922.97;;;27.88
48894;BMP280;34710;35.798;139.446;2022-10-16T03:32:44;100925.36;;;28.82
48894;BMP280;34710;35.798;139.446;2022-10-16T03:35:13;100923.53;;;28.10
48894;BMP280;34710;35.798;139.446;2022-10-16T03:37:42;100920.25;;;26.83
48894;BMP280;34710;35.798;139.446;2022-10-16T03:40:13;100917.91;;;27.95
48894;BMP280;34710;35.798;139.446;2022-10-16T03:42:43;100918.01;;;26.28
48894;BMP280;34710;35.798;139.446;2022-10-16T03:45:13;100919.47;;;24.96
48894;BMP280;34710;35.798;139.446;2022-10-16T03:47:42;100915.46;;;25.37
48894;BMP280;34710;35.798;139.446;2022-10-16T03:50:11;100909.69;;;27.24
48894;BMP280;34710;35.798;139.446;2022-10-16T03:52:41;100904.86;;;28.49
48894;BMP280;34710;35.798;139.446;2022-10-16T03:55:10;100902.48;;;28.32
48894;BMP280;34710;35.798;139.446;2022-10-16T03:57:39;100900.32;;;27.87
48894;BMP280;34710;35.798;139.446;2022-10-16T04:00:10;100897.57;;;28.68
48894;BMP280;34710;35.798;139.446;2022-10-16T04:02:39;100895.17;;;29.00
48894;BMP280;34710;35.798;139.446;2022-10-16T04:05:09;100888.46;;;29.15
48894;BMP280;34710;35.798;139.446;2022-10-16T04:07:38;100885.86;;;28.56
48894;BMP280;34710;35.798;139.446;2022-10-16T04:10:08;100885.94;;;29.24
48894;BMP280;34710;35.798;139.446;2022-10-16T04:12:38;100884.46;;;29.90
48894;BMP280;34710;35.798;139.446;2022-10-16T04:15:08;100883.40;;;30.13
48894;BMP280;34710;35.798;139.446;2022-10-16T04:17:37;100882.14;;;29.12
48894;BMP280;34710;35.798;139.446;2022-10-16T04:20:07;100877.03;;;29.66
48894;BMP280;34710;35.798;139.446;2022-10-16T04:22:38;100870.86;;;29.86
48894;BMP280;34710;35.798;139.446;2022-10-16T04:25:07;100867.36;;;30.22
48894;BMP280;34710;35.798;139.446;2022-10-16T04:27:37;100863.92;;;29.43
48894;BMP280;34710;35.798;139.446;2022-10-16T04:30:07;100862.09;;;29.20
48894;BMP280;34710;35.798;139.446;2022-10-16T04:32:37;100858.83;;;28.99
48894;BMP280;34710;35.798;139.446;2022-10-16T04:35:08;100860.83;;;28.96
48894;BMP280;34710;35.798;139.446;2022-10-16T04:37:38;100858.47;;;28.58
48894;BMP280;34710;35.798;139.446;2022-10-16T04:40:07;100857.97;;;28.94
48894;BMP280;34710;35.798;139.446;2022-10-16T04:42:37;100857.59;;;29.45
48894;BMP280;34710;35.798;139.446;2022-10-16T04:45:07;100855.32;;;29.48
48894;BMP280;34710;35.798;139.446;2022-10-16T04:47:36;100850.80;;;28.63
48894;BMP280;34710;35.798;139.446;2022-10-16T04:50:06;100846.06;;;29.17
48894;BMP280;34710;35.798;139.446;2022-10-16T04:52:36;100844.04;;;29.62
48894;BMP280;34710;35.798;139.446;2022-10-16T04:55:05;100839.78;;;30.83
48894;BMP280;34710;35.798;139.446;2022-10-16T04:57:34;100840.12;;;30.72
48894;BMP280;34710;35.798;139.446;2022-10-16T05:00:04;100838.16;;;31.04
48894;BMP280;34710;35.798;139.446;2022-10-16T05:02:33;100833.57;;;31.40
48894;BMP280;34710;35.798;139.446;2022-10-16T05:05:03;100832.55;;;31.00
48894;BMP280;34710;35.798;139.446;2022-10-16T05:07:32;100830.63;;;30.79
48894;BMP280;34710;35.798;139.446;2022-10-16T05:10:01;100825.20;;;31.24
48894;BMP280;34710;35.798;139.446;2022-10-16T05:12:31;100822.33;;;31.65
48894;BMP280;34710;35.798;139.446;2022-10-16T05:15:00;100819.80;;;31.74
48894;BMP280;34710;35.798;139.446;2022-10-16T05:17:29;100818.71;;;31.70
48894;BMP280;34710;35.798;139.446;2022-10-16T05:19:58;100820.80;;;31.43
48894;BMP280;34710;35.798;139.446;2022-10-16T05:22:28;100819.03;;;31.24
48894;BMP280;34710;35.798;139.446;2022-10-16T05:24:57;100822.46;;;30.81
48894;BMP280;34710;35.798;139.446;2022-10-16T05:27:27;100823.03;;;30.17
48894;BMP280;34710;35.798;139.446;2022-10-16T05:29:57;100823.82;;;30.29
48894;BMP280;34710;35.798;139.446;2022-10-16T05:32:26;100824.62;;;28.79
48894;BMP280;34710;35.798;139.446;2022-10-16T05:34:55;100824.49;;;28.14
48894;BMP280;34710;35.798;139.446;2022-10-16T05:37:25;100818.48;;;27.88
48894;BMP280;34710;35.798;139.446;2022-10-16T05:39:55;100820.55;;;28.36
48894;BMP280;34710;35.798;139.446;2022-10-16T05:42:24;100820.91;;;28.68
48894;BMP280;34710;35.798;139.446;2022-10-16T05:44:53;100820.50;;;28.60
48894;BMP280;34710;35.798;139.446;2022-10-16T05:47:22;100824.75;;;28.35
48894;BMP280;34710;35.798;139.446;2022-10-16T05:49:51;100824.32;;;27.64
48894;BMP280;34710;35.798;139.446;2022-10-16T05:52:20;100822.51;;;28.25
48894;BMP280;34710;35.798;139.446;2022-10-16T05:54:50;100824.54;;;28.57
48894;BMP280;34710;35.798;139.446;2022-10-16T05:57:19;100819.78;;;28.68
48894;BMP280;34710;35.798;139.446;2022-10-16T05:59:48;100819.49;;;28.44
48894;BMP280;34710;35.798;139.446;2022-10-16T06:02:17;100821.57;;;28.67
48894;BMP280;34710;35.798;139.446;2022-10-16T06:04:47;100824.19;;;26.90
48894;BMP280;34710;35.798;139.446;2022-10-16T06:07:16;100826.60;;;27.87
48894;BMP280;34710;35.798;139.446;2022-10-16T06:09:49;100825.58;;;27.82
48894;BMP280;34710;35.798;139.446;2022-10-16T06:12:18;100826.73;;;27.80
48894;BMP280;34710;35.798;139.446;2022-10-16T06:14:47;100826.23;;;28.09
48894;BMP280;34710;35.798;139.446;2022-10-16T06:17:18;100826.82;;;28.63
48894;BMP280;34710;35.798;139.446;2022-10-16T06:19:48;100827.44;;;28.30
48894;BMP280;34710;35.798;139.446;2022-10-16T06:22:18;100826.34;;;27.91
48894;BMP280;34710;35.798;139.446;2022-10-16T06:24:47;100823.64;;;28.39
48894;BMP280;34710;35.798;139.446;2022-10-16T06:27:17;100821.27;;;28.59
48894;BMP280;34710;35.798;139.446;2022-10-16T06:29:46;100824.00;;;28.44
48894;BMP280;34710;35.798;139.446;2022-10-16T06:32:16;100823.79;;;28.60
48894;BMP280;34710;35.798;139.446;2022-10-16T06:34:45;100822.26;;;28.15
48894;BMP280;34710;35.798;139.446;2022-10-16T06:37:14;100823.74;;;28.88
48894;BMP280;34710;35.798;139.446;2022-10-16T06:39:44;100826.42;;;28.28
48894;BMP280;34710;35.798;139.446;2022-10-16T06:42:13;100825.54;;;27.47
48894;BMP280;34710;35.798;139.446;2022-10-16T06:44:42;100826.74;;;27.84
48894;BMP280;34710;35.798;139.446;2022-10-16T06:47:12;100828.90;;;26.85
48894;BMP280;34710;35.798;139.446;2022-10-16T06:49:41;100832.38;;;27.27
48894;BMP280;34710;35.798;139.446;2022-10-16T06:52:10;100831.50;;;27.56
48894;BMP280;34710;35.798;139.446;2022-10-16T06:54:39;100831.49;;;27.51
48894;BMP280;34710;35.798;139.446;2022-10-16T06:57:09;100833.52;;;27.78
48894;BMP280;34710;35.798;139.446;2022-10-16T06:59:38;100836.90;;;27.45
48894;BMP280;34710;35.798;139.446;2022-10-16T07:02:08;100831.40;;;28.24
48894;BMP280;34710;35.798;139.446;2022-10-16T07:04:37;100830.80;;;27.07
48894;BMP280;34710;35.798;139.446;2022-10-16T07:07:06;100826.64;;;26.40
48894;BMP280;34710;35.798;139.446;2022-10-16T07:09:35;100822.55;;;26.42
48894;BMP280;34710;35.798;139.446;2022-10-16T07:12:05;100818.05;;;26.64
48894;BMP280;34710;35.798;139.446;2022-10-16T07:14:34;100815.56;;;25.84
48894;BMP280;34710;35.798;139.446;2022-10-16T07:17:03;100813.07;;;26.56
48894;BMP280;34710;35.798;139.446;2022-10-16T07:19:33;100813.48;;;26.81
48894;BMP280;34710;35.798;139.446;2022-10-16T07:22:03;100810.23;;;26.60
48894;BMP280;34710;35.798;139.446;2022-10-16T07:24:32;100809.44;;;25.64
48894;BMP280;34710;35.798;139.446;2022-10-16T07:27:02;100816.23;;;24.75
48894;BMP280;34710;35.798;139.446;2022-10-16T07:29:31;100812.20;;;23.96
48894;BMP280;34710;35.798;139.446;2022-10-16T07:32:01;100807.65;;;24.07
48894;BMP280;34710;35.798;139.446;2022-10-16T07:34:30;100806.99;;;23.04
48894;BMP280;34710;35.798;139.446;2022-10-16T07:36:59;100812.61;;;23.48
48894;BMP280;34710;35.798;139.446;2022-10-16T07:39:28;100806.57;;;23.30
48894;BMP280;34710;35.798;139.446;2022-10-16T07:41:58;100806.69;;;22.55
48894;BMP280;34710;35.798;139.446;2022-10-16T07:44:27;100807.81;;;23.31
48894;BMP280;34710;35.798;139.446;2022-10-16T07:46:57;100809.16;;;23.52
48894;BMP280;34710;35.798;139.446;2022-10-16T07:49:26;100809.10;;;23.84
48894;BMP280;34710;35.798;139.446;2022-10-16T07:51:55;100810.66;;;23.08
48894;BMP280;34710;35.798;139.446;2022-10-16T07:54:24;100808.04;;;22.82
48894;BMP280;34710;35.798;139.446;2022-10-16T07:56:53;100804.73;;;22.73
48894;BMP280;34710;35.798;139.446;2022-10-16T07:59:23;100805.18;;;22.58
48894;BMP280;34710;35.798;139.446;2022-10-16T08:01:52;100801.94;;;23.23
48894;BMP280;34710;35.798;139.446;2022-10-16T08:04:21;100807.00;;;23.87
48894;BMP280;34710;35.798;139.446;2022-10-16T08:06:51;100804.39;;;23.96
48894;BMP280;34710;35.798;139.446;2022-10-16T08:09:21;100806.27;;;23.69
48894;BMP280;34710;35.798;139.446;2022-10-16T08:11:50;100807.11;;;23.88
48894;BMP280;34710;35.798;139.446;2022-10-16T08:14:19;100804.15;;;23.80
48894;BMP280;34710;35.798;139.446;2022-10-16T08:16:48;100809.56;;;23.55
48894;BMP280;34710;35.798;139.446;2022-10-16T08:19:17;100812.99;;;22.91
48894;BMP280;34710;35.798;139.446;2022-10-16T08:21:49;100817.60;;;23.99
48894;BMP280;34710;35.798;139.446;2022-10-16T08:24:19;100822.49;;;24.19
48894;BMP280;34710;35.798;139.446;2022-10-16T08:26:48;100824.18;;;23.98
48894;BMP280;34710;35.798;139.446;2022-10-16T08:29:17;100821.98;;;24.02
48894;BMP280;34710;35.798;139.446;2022-10-16T08:31:47;100824.65;;;24.99
48894;BMP280;34710;35.798;139.446;2022-10-16T08:34:16;100823.99;;;25.15
48894;BMP280;34710;35.798;139.446;2022-10-16T08:36:46;100825.97;;;25.76
48894;BMP280;34710;35.798;139.446;2022-10-16T08:39:15;100826.77;;;25.74
48894;BMP280;34710;35.798;139.446;2022-10-16T08:42:06;100825.95;;;25.77
48894;BMP280;34710;35.798;139.446;2022-10-16T08:44:58;100828.03;;;26.22
48894;BMP280;34710;35.798;139.446;2022-10-16T08:47:41;100835.22;;;24.54
48894;BMP280;34710;35.798;139.446;2022-10-16T08:50:17;100837.84;;;24.14
48894;BMP280;34710;35.798;139.446;2022-10-16T08:52:48;100844.52;;;23.05
48894;BMP280;34710;35.798;139.446;2022-10-16T08:55:29;100849.68;;;24.49
48894;BMP280;34710;35.798;139.446;2022-10-16T08:58:00;100847.98;;;22.91
48894;BMP280;34710;35.798;139.446;2022-10-16T09:00:29;100845.15;;;24.27
48894;BMP280;34710;35.798;139.446;2022-10-16T09:03:06;100842.64;;;24.84
48894;BMP280;34710;35.798;139.446;2022-10-16T09:05:56;100843.94;;;24.61
48894;BMP280;34710;35.798;139.446;2022-10-16T09:08:33;100843.75;;;24.65
48894;BMP280;34710;35.798;139.446;2022-10-16T09:11:12;100847.16;;;24.91
48894;BMP280;34710;35.798;139.446;2022-10-16T09:13:50;100844.55;;;23.80
48894;BMP280;34710;35.798;139.446;2022-10-16T09:16:26;100841.34;;;22.58
48894;BMP280;34710;35.798;139.446;2022-10-16T09:19:03;100840.18;;;23.63
48894;BMP280;34710;35.798;139.446;2022-10-16T09:21:37;100841.20;;;23.98
48894;BMP280;34710;35.798;139.446;2022-10-16T09:24:13;100843.67;;;23.56
48894;BMP280;34710;35.798;139.446;2022-10-16T09:26:44;100845.65;;;24.59
48894;BMP280;34710;35.798;139.446;2022-10-16T09:29:15;100848.91;;;24.45
48894;BMP280;34710;35.798;139.446;2022-10-16T09:31:45;100847.27;;;24.41
48894;BMP280;34710;35.798;139.446;2022-10-16T09:34:20;100846.36;;;24.79
48894;BMP280;34710;35.798;139.446;2022-10-16T09:36:54;100845.10;;;24.61
48894;BMP280;34710;35.798;139.446;2022-10-16T09:39:26;100846.47;;;24.96
48894;BMP280;34710;35.798;139.446;2022-10-16T09:41:56;100843.05;;;24.73
48894;BMP280;34710;35.798;139.446;2022-10-16T09:44:29;100843.64;;;24.45
48894;BMP280;34710;35.798;139.446;2022-10-16T09:47:04;100848.11;;;24.89
48894;BMP280;34710;35.798;139.446;2022-10-16T09:49:35;100841.61;;;24.16
48894;BMP280;34710;35.798;139.446;2022-10-16T09:52:09;100837.66;;;25.02
48894;BMP280;34710;35.798;139.446;2022-10-16T09:54:50;100840.56;;;23.14
48894;BMP280;34710;35.798;139.446;2022-10-16T09:57:20;100840.40;;;24.40
48894;BMP280;34710;35.798;139.446;2022-10-16T09:59:50;100841.72;;;24.15
48894;BMP280;34710;35.798;139.446;2022-10-16T10:02:30;100846.40;;;24.56
48894;BMP280;34710;35.798;139.446;2022-10-16T10:04:59;100846.99;;;24.18
48894;BMP280;34710;35.798;139.446;2022-10-16T10:07:30;100843.14;;;24.69
48894;BMP280;34710;35.798;139.446;2022-10-16T10:10:00;100839.33;;;24.89
48894;BMP280;34710;35.798;139.446;2022-10-16T10:12:31;100836.32;;;24.17
48894;BMP280;34710;35.798;139.446;2022-10-16T10:15:06;100834.05;;;24.33
48894;BMP280;34710;35.798;139.446;2022-10-16T10:17:46;100830.08;;;24.26
48894;BMP280;34710;35.798;139.446;2022-10-16T10:20:24;100830.54;;;23.56
48894;BMP280;34710;35.798;139.446;2022-10-16T10:22:54;100831.77;;;24.27
48894;BMP280;34710;35.798;139.446;2022-10-16T10:25:38;100826.78;;;25.00
48894;BMP280;34710;35.798;139.446;2022-10-16T10:28:23;100835.77;;;24.60
48894;BMP280;34710;35.798;139.446;2022-10-16T10:31:02;100836.21;;;24.52
48894;BMP280;34710;35.798;139.446;2022-10-16T10:33:41;100836.83;;;24.97
48894;BMP280;34710;35.798;139.446;2022-10-16T10:36:22;100835.12;;;25.00
48894;BMP280;34710;35.798;139.446;2022-10-16T10:38:56;100835.89;;;24.79
48894;BMP280;34710;35.798;139.446;2022-10-16T10:41:51;100836.94;;;25.19
48894;BMP280;34710;35.798;139.446;2022-10-16T10:44:33;100836.26;;;25.01
48894;BMP280;34710;35.798;139.446;2022-10-16T10:47:10;100843.94;;;25.17
48894;BMP280;34710;35.798;139.446;2022-10-16T10:49:51;100843.74;;;25.42
48894;BMP280;34710;35.798;139.446;2022-10-16T10:52:36;100846.82;;;25.03
48894;BMP280;34710;35.798;139.446;2022-10-16T10:55:16;100850.81;;;25.07
48894;BMP280;34710;35.798;139.446;2022-10-16T10:58:21;100853.43;;;25.60
48894;BMP280;34710;35.798;139.446;2022-10-16T11:00:59;100852.13;;;24.20
48894;BMP280;34710;35.798;139.446;2022-10-16T11:03:50;100850.31;;;24.60
48894;BMP280;34710;35.798;139.446;2022-10-16T11:06:27;100842.32;;;24.17
48894;BMP280;34710;35.798;139.446;2022-10-16T11:09:06;100840.50;;;23.68
48894;BMP280;34710;35.798;139.446;2022-10-16T11:11:42;100834.26;;;24.30
48894;BMP280;34710;35.798;139.446;2022-10-16T11:14:18;100837.20;;;24.93
48894;BMP280;34710;35.798;139.446;2022-10-16T11:16:52;100833.95;;;24.90
48894;BMP280;34710;35.798;139.446;2022-10-16T11:19:31;100838.39;;;25.25
48894;BMP280;34710;35.798;139.446;2022-10-16T11:22:09;100832.94;;;25.10
48894;BMP280;34710;35.798;139.446;2022-10-16T11:24:47;100836.71;;;25.08
48894;BMP280;34710;35.798;139.446;2022-10-16T11:27:21;100835.86;;;24.93
48894;BMP280;34710;35.798;139.446;2022-10-16T11:29:58;100835.97;;;25.06
48894;BMP280;34710;35.798;139.446;2022-10-16T11:32:34;100838.72;;;25.47
48894;BMP280;34710;35.798;139.446;2022-10-16T11:35:14;100837.08;;;25.17
48894;BMP280;34710;35.798;139.446;2022-10-16T11:37:46;100834.41;;;25.33
48894;BMP280;34710;35.798;139.446;2022-10-16T11:40:25;100837.77;;;25.54
48894;BMP280;34710;35.798;139.446;2022-10-16T11:43:02;100843.14;;;25.73
48894;BMP280;34710;35.798;139.446;2022-10-16T11:45:38;100844.03;;;25.75
48894;BMP280;34710;35.798;139.446;2022-10-16T11:48:20;100846.55;;;25.55
48894;BMP280;34710;35.798;139.446;2022-10-16T11:50:54;100846.68;;;25.08
48894;BMP280;34710;35.798;139.446;2022-10-16T11:53:42;100847.42;;;25.18
48894;BMP280;34710;35.798;139.446;2022-10-16T11:56:14;100850.58;;;25.30
48894;BMP280;34710;35.798;139.446;2022-10-16T11:58:54;100850.21;;;25.23
48894;BMP280;34710;35.798;139.446;2022-10-16T12:01:31;100848.40;;;25.52
48894;BMP280;34710;35.798;139.446;2022-10-16T12:04:12;100846.77;;;25.62
48894;BMP280;34710;35.798;139.446;2022-10-16T12:06:46;100844.31;;;25.77
48894;BMP280;34710;35.798;139.446;2022-10-16T12:09:22;100839.78;;;25.78
48894;BMP280;34710;35.798;139.446;2022-10-16T12:11:53;100841.25;;;25.77
48894;BMP280;34710;35.798;139.446;2022-10-16T12:14:36;100835.77;;;25.75
48894;BMP280;34710;35.798;139.446;2022-10-16T12:17:24;100835.92;;;24.83
48894;BMP280;34710;35.798;139.446;2022-10-16T12:20:18;100829.80;;;24.58
48894;BMP280;34710;35.798;139.446;2022-10-16T12:22:51;100825.89;;;24.78
48894;BMP280;34710;35.798;139.446;2022-10-16T12:25:23;100824.45;;;24.67
48894;BMP280;34710;35.798;139.446;2022-10-16T12:27:59;100828.58;;;24.53
48894;BMP280;34710;35.798;139.446;2022-10-16T12:30:31;100827.58;;;25.37
48894;BMP280;34710;35.798;139.446;2022-10-16T12:33:03;100820.12;;;25.26
48894;BMP280;34710;35.798;139.446;2022-10-16T12:35:35;100824.44;;;25.37
48894;BMP280;34710;35.798;139.446;2022-10-16T12:38:17;100824.13;;;25.10
48894;BMP280;34710;35.798;139.446;2022-10-16T12:40:55;100824.82;;;24.97
48894;BMP280;34710;35.798;139.446;2022-10-16T12:43:35;100827.95;;;25.08
48894;BMP280;34710;35.798;139.446;2022-10-16T12:46:20;100829.85;;;25.41
48894;BMP280;34710;35.798;139.446;2022-10-16T12:48:51;100822.82;;;25.22
48894;BMP280;34710;35.798;139.446;2022-10-16T12:51:33;100817.65;;;25.31
48894;BMP280;34710;35.798;139.446;2022-10-16T12:54:04;100812.04;;;25.27
48894;BMP280;34710;35.798;139.446;2022-10-16T12:56:41;100804.78;;;25.28
48894;BMP280;34710;35.798;139.446;2022-10-16T12:59:20;100798.15;;;25.30
48894;BMP280;34710;35.798;139.446;2022-10-16T13:02:16;100801.74;;;25.26
48894;BMP280;34710;35.798;139.446;2022-10-16T13:05:01;100799.52;;;25.07
48894;BMP280;34710;35.798;139.446;2022-10-16T13:07:44;100795.83;;;24.89
48894;BMP280;34710;35.798;139.446;2022-10-16T13:10:25;100795.85;;;24.82
48894;BMP280;34710;35.798;139.446;2022-10-16T13:13:13;100788.18;;;24.57
48894;BMP280;34710;35.798;139.446;2022-10-16T13:16:00;100787.39;;;24.49
48894;BMP280;34710;35.798;139.446;2022-10-16T13:18:42;100787.49;;;24.14
48894;BMP280;34710;35.798;139.446;2022-10-16T13:21:25;100779.67;;;24.57
48894;BMP280;34710;35.798;139.446;2022-10-16T13:24:04;100783.04;;;24.47
48894;BMP280;34710;35.798;139.446;2022-10-16T13:26:42;100778.42;;;24.83
48894;BMP280;34710;35.798;139.446;2022-10-16T13:29:14;100776.35;;;24.68
48894;BMP280;34710;35.798;139.446;2022-10-16T13:31:45;100778.13;;;24.93
48894;BMP280;34710;35.798;139.446;2022-10-16T13:34:18;100773.18;;;25.03
48894;BMP280;34710;35.798;139.446;2022-10-16T13:36:50;100768.45;;;24.70
48894;BMP280;34710;35.798;139.446;2022-10-16T13:39:24;100760.89;;;25.01
48894;BMP280;34710;35.798;139.446;2022-10-16T13:42:11;100757.33;;;25.04
48894;BMP280;34710;35.798;139.446;2022-10-16T13:44:43;100755.16;;;24.88
48894;BMP280;34710;35.798;139.446;2022-10-16T13:47:18;100753.99;;;24.82
48894;BMP280;34710;35.798;139.446;2022-10-16T13:49:58;100748.71;;;24.52
48894;BMP280;34710;35.798;139.446;2022-10-16T13:52:27;100744.90;;;24.63
48894;BMP280;34710;35.798;139.446;2022-10-16T13:54:57;100744.75;;;24.91
48894;BMP280;34710;35.798;139.446;2022-10-16T13:57:27;100747.64;;;24.65
48894;BMP280;34710;35.798;139.446;2022-10-16T13:59:57;100743.29;;;24.58
48894;BMP280;34710;35.798;139.446;2022-10-16T14:02:28;100736.09;;;24.53
48894;BMP280;34710;35.798;139.446;2022-10-16T14:05:00;100739.24;;;24.68